Woensdrecht, Nederland

3:51 AM CEST op 02 september 2014 (GMT +0200)
Woensdrecht Air Base | Change Station
CLOSE
Current Station
Luchthaven
Location: Woensdrecht,
Geometrische hoogte: 56 ft
Nabije weerstations

Hoogte 56 ft 51.45 °N, 4.34 °E | Updated 26 minutes ago

Overcast
Geheel bewolkt
59 °F
Voelt als 59 °F
N
1
Wind Variabel Wind van OZO

Vandaag
Hoog -- | Laag -- °F
--% Kans op neerslag
Gisteren
Hoog -- | Laag -- °F
Precip. -- inches
6:56 AM 8:27 PM
Wassende halvemaan, 46% visible
Druk 30.12 inches
Zicht 6.2 mijlen
Wolken Geheel bewolkt 6000 ft
Dauwpunt 59 °F
Vochtigheid 100%
Neerslag 0.00 inches
Dikte sneeuw Niet beschikbaar.
UV 0 van de 12
Pollen Niet beschikbaar.
Luchtkwaliteit Niet beschikbaar.
Flu Activity Niet beschikbaar.
METAR EHWO 020125Z AUTO 11001KT 9999 OVC060 15/15 Q1020 BLU

More Conditions Fewer Conditions

Druk 30.12 inches
Zicht 6.2 mijlen
Wolken Geheel bewolkt 6000 ft
Dauwpunt 59 °F
Vochtigheid 100%
Neerslag 0.00 inches
Dikte sneeuw Niet beschikbaar.
UV 0 van de 12
Pollen Niet beschikbaar.
Luchtkwaliteit Niet beschikbaar.
Flu Activity Niet beschikbaar.
METAR EHWO 020125Z AUTO 11001KT 9999 OVC060 15/15 Q1020 BLU

More Conditions Fewer Conditions

10-Day Weather Forecast

Almanac

Astronomie

Sep. 02, 2014 Opkomst Ondergang
Werkelijke tijd 6:56 AM CEST 8:27 PM CEST
Burgerlijke schemering 6:21 AM CEST 9:01 PM CEST
Nautische schemering 5:39 AM CEST 9:44 PM CEST
Astronomische schemering 4:52 AM CEST 10:30 PM CEST
Maan 3:14 PM CEST Geen maanondergang
Golflengte van het zichtbare licht 14h 39m
Daglengte
13h 30m
Tomorrow will be 3m 50s shorter.
Wassende halvemaan, 46% of the Moon is Illuminated
sep 1
Wassende halvemaan
sep 2
Eerste kwartier
sep 8
Volle maan
sep 15
Laatste kwartier
sep 24
Nieuw

Extremen gisteren

Country Highs Country Lows

Community

WunderPhotos

Upload Photos

1,749,476 foto’s ge-upload!

Nearby

Luchtkwaliteit

Not available.

Dikte sneeuw

Not available.

Aardbevingen

Stad Distance Mag. Time & Date
No recent earthquake activity has been reported nearby.
Minimum magnitude displayed is 2.5.

Watertemperatuur langs de kust

Plaats Temperatuur
Geen meldingen van stations

Nabije weerstations